sensor_id;sensor_type;location;lat;lon;timestamp;temperature;humidity
5461;DHT22;2753;49.196;8.286;2023-04-25T00:01:05;10.10;99.90
5461;DHT22;2753;49.196;8.286;2023-04-25T00:03:32;10.10;99.90
5461;DHT22;2753;49.196;8.286;2023-04-25T00:05:58;10.00;99.90
5461;DHT22;2753;49.196;8.286;2023-04-25T00:08:29;9.90;99.90
5461;DHT22;2753;49.196;8.286;2023-04-25T00:10:55;9.90;99.90
5461;DHT22;2753;49.196;8.286;2023-04-25T00:13:20;9.90;99.90
5461;DHT22;2753;49.196;8.286;2023-04-25T00:15:47;9.90;99.90
5461;DHT22;2753;49.196;8.286;2023-04-25T00:18:14;9.80;99.90
5461;DHT22;2753;49.196;8.286;2023-04-25T00:20:39;9.80;99.90
5461;DHT22;2753;49.196;8.286;2023-04-25T00:23:05;9.80;99.90
5461;DHT22;2753;49.196;8.286;2023-04-25T00:25:31;9.80;99.90
5461;DHT22;2753;49.196;8.286;2023-04-25T00:27:57;9.90;99.90
5461;DHT22;2753;49.196;8.286;2023-04-25T00:30:23;9.80;99.90
5461;DHT22;2753;49.196;8.286;2023-04-25T00:32:48;9.80;99.90
5461;DHT22;2753;49.196;8.286;2023-04-25T00:35:14;9.80;99.90
5461;DHT22;2753;49.196;8.286;2023-04-25T00:37:40;9.80;99.90
5461;DHT22;2753;49.196;8.286;2023-04-25T00:40:06;9.90;99.90
5461;DHT22;2753;49.196;8.286;2023-04-25T00:42:34;9.90;99.90
5461;DHT22;2753;49.196;8.286;2023-04-25T00:45:00;9.80;99.90
5461;DHT22;2753;49.196;8.286;2023-04-25T00:47:27;9.80;99.90
5461;DHT22;2753;49.196;8.286;2023-04-25T00:49:53;9.80;99.90
5461;DHT22;2753;49.196;8.286;2023-04-25T00:52:19;9.80;99.90
5461;DHT22;2753;49.196;8.286;2023-04-25T00:54:45;9.80;99.90
5461;DHT22;2753;49.196;8.286;2023-04-25T00:57:11;9.70;99.90
5461;DHT22;2753;49.196;8.286;2023-04-25T00:59:38;9.70;99.90
5461;DHT22;2753;49.196;8.286;2023-04-25T01:02:04;9.70;99.90
5461;DHT22;2753;49.196;8.286;2023-04-25T01:04:30;9.70;99.90
5461;DHT22;2753;49.196;8.286;2023-04-25T01:06:56;9.70;99.90
5461;DHT22;2753;49.196;8.286;2023-04-25T01:09:22;9.70;99.90
5461;DHT22;2753;49.196;8.286;2023-04-25T01:11:49;9.70;99.90
5461;DHT22;2753;49.196;8.286;2023-04-25T01:14:15;9.70;99.90
5461;DHT22;2753;49.196;8.286;2023-04-25T01:16:41;9.70;99.90
5461;DHT22;2753;49.196;8.286;2023-04-25T01:19:10;9.60;99.90
5461;DHT22;2753;49.196;8.286;2023-04-25T01:21:39;9.60;99.90
5461;DHT22;2753;49.196;8.286;2023-04-25T01:24:06;9.70;99.90
5461;DHT22;2753;49.196;8.286;2023-04-25T01:26:32;9.60;99.90
5461;DHT22;2753;49.196;8.286;2023-04-25T01:29:03;9.60;99.90
5461;DHT22;2753;49.196;8.286;2023-04-25T01:31:30;9.60;99.90
5461;DHT22;2753;49.196;8.286;2023-04-25T01:33:55;9.70;99.90
5461;DHT22;2753;49.196;8.286;2023-04-25T01:36:22;9.60;99.90
5461;DHT22;2753;49.196;8.286;2023-04-25T01:38:47;9.60;99.90
5461;DHT22;2753;49.196;8.286;2023-04-25T01:41:14;9.70;99.90
5461;DHT22;2753;49.196;8.286;2023-04-25T01:43:40;9.60;99.90
5461;DHT22;2753;49.196;8.286;2023-04-25T01:46:06;9.60;99.90
5461;DHT22;2753;49.196;8.286;2023-04-25T01:48:32;9.60;99.90
5461;DHT22;2753;49.196;8.286;2023-04-25T01:50:57;9.60;99.90
5461;DHT22;2753;49.196;8.286;2023-04-25T01:53:24;9.60;99.90
5461;DHT22;2753;49.196;8.286;2023-04-25T01:55:50;9.60;99.90
5461;DHT22;2753;49.196;8.286;2023-04-25T01:58:15;9.60;99.90
5461;DHT22;2753;49.196;8.286;2023-04-25T02:00:41;9.60;99.90
5461;DHT22;2753;49.196;8.286;2023-04-25T02:03:07;9.60;99.90
5461;DHT22;2753;49.196;8.286;2023-04-25T02:05:37;9.60;99.90
5461;DHT22;2753;49.196;8.286;2023-04-25T02:08:05;9.60;99.90
5461;DHT22;2753;49.196;8.286;2023-04-25T02:10:31;9.60;99.90
5461;DHT22;2753;49.196;8.286;2023-04-25T02:12:57;9.50;99.90
5461;DHT22;2753;49.196;8.286;2023-04-25T02:15:23;9.50;99.90
5461;DHT22;2753;49.196;8.286;2023-04-25T02:17:49;9.50;99.90
5461;DHT22;2753;49.196;8.286;2023-04-25T02:20:15;9.50;99.90
5461;DHT22;2753;49.196;8.286;2023-04-25T02:22:45;9.50;99.90
5461;DHT22;2753;49.196;8.286;2023-04-25T02:25:11;9.50;99.90
5461;DHT22;2753;49.196;8.286;2023-04-25T02:27:37;9.50;99.90
5461;DHT22;2753;49.196;8.286;2023-04-25T02:30:04;9.50;99.90
5461;DHT22;2753;49.196;8.286;2023-04-25T02:32:32;9.40;99.90
5461;DHT22;2753;49.196;8.286;2023-04-25T02:35:02;9.40;99.90
5461;DHT22;2753;49.196;8.286;2023-04-25T02:37:35;9.50;99.90
5461;DHT22;2753;49.196;8.286;2023-04-25T02:40:01;9.50;99.90
5461;DHT22;2753;49.196;8.286;2023-04-25T02:42:28;9.50;99.90
5461;DHT22;2753;49.196;8.286;2023-04-25T02:44:54;9.50;99.90
5461;DHT22;2753;49.196;8.286;2023-04-25T02:47:20;9.50;99.90
5461;DHT22;2753;49.196;8.286;2023-04-25T02:49:45;9.50;99.90
5461;DHT22;2753;49.196;8.286;2023-04-25T02:52:11;9.50;99.90
5461;DHT22;2753;49.196;8.286;2023-04-25T02:54:39;9.50;99.90
5461;DHT22;2753;49.196;8.286;2023-04-25T02:57:05;9.50;99.90
5461;DHT22;2753;49.196;8.286;2023-04-25T02:59:31;9.50;99.90
5461;DHT22;2753;49.196;8.286;2023-04-25T03:01:56;9.50;99.90
5461;DHT22;2753;49.196;8.286;2023-04-25T03:04:22;9.50;99.90
5461;DHT22;2753;49.196;8.286;2023-04-25T03:06:49;9.50;99.90
5461;DHT22;2753;49.196;8.286;2023-04-25T03:09:15;9.40;99.90
5461;DHT22;2753;49.196;8.286;2023-04-25T03:11:41;9.40;99.90
5461;DHT22;2753;49.196;8.286;2023-04-25T03:14:07;9.40;99.90
5461;DHT22;2753;49.196;8.286;2023-04-25T03:16:33;9.40;99.90
5461;DHT22;2753;49.196;8.286;2023-04-25T03:18:59;9.40;99.90
5461;DHT22;2753;49.196;8.286;2023-04-25T03:21:25;9.30;99.90
5461;DHT22;2753;49.196;8.286;2023-04-25T03:23:51;9.30;99.90
5461;DHT22;2753;49.196;8.286;2023-04-25T03:26:17;9.40;99.90
5461;DHT22;2753;49.196;8.286;2023-04-25T03:28:43;9.40;99.90
5461;DHT22;2753;49.196;8.286;2023-04-25T03:31:09;9.40;99.90
5461;DHT22;2753;49.196;8.286;2023-04-25T03:33:34;9.30;99.90
5461;DHT22;2753;49.196;8.286;2023-04-25T03:36:00;9.40;99.90
5461;DHT22;2753;49.196;8.286;2023-04-25T03:38:26;9.30;99.90
5461;DHT22;2753;49.196;8.286;2023-04-25T03:40:51;9.20;99.90
5461;DHT22;2753;49.196;8.286;2023-04-25T03:43:17;9.30;99.90
5461;DHT22;2753;49.196;8.286;2023-04-25T03:45:43;9.20;99.90
5461;DHT22;2753;49.196;8.286;2023-04-25T03:48:08;9.20;99.90
5461;DHT22;2753;49.196;8.286;2023-04-25T03:50:34;9.20;99.90
5461;DHT22;2753;49.196;8.286;2023-04-25T03:53:00;9.20;99.90
5461;DHT22;2753;49.196;8.286;2023-04-25T03:55:26;9.20;99.90
5461;DHT22;2753;49.196;8.286;2023-04-25T03:57:52;9.20;99.90
5461;DHT22;2753;49.196;8.286;2023-04-25T04:00:17;9.20;99.90
5461;DHT22;2753;49.196;8.286;2023-04-25T04:02:43;9.20;99.90
5461;DHT22;2753;49.196;8.286;2023-04-25T04:05:09;9.20;99.90
5461;DHT22;2753;49.196;8.286;2023-04-25T04:07:34;9.20;99.90
5461;DHT22;2753;49.196;8.286;2023-04-25T04:10:06;9.20;99.90
5461;DHT22;2753;49.196;8.286;2023-04-25T04:12:33;9.10;99.90
5461;DHT22;2753;49.196;8.286;2023-04-25T04:14:58;9.10;99.90
5461;DHT22;2753;49.196;8.286;2023-04-25T04:17:24;9.10;99.90
5461;DHT22;2753;49.196;8.286;2023-04-25T04:19:50;9.00;99.90
5461;DHT22;2753;49.196;8.286;2023-04-25T04:22:16;9.10;99.90
5461;DHT22;2753;49.196;8.286;2023-04-25T04:24:41;9.10;99.90
5461;DHT22;2753;49.196;8.286;2023-04-25T04:27:12;9.10;99.90
5461;DHT22;2753;49.196;8.286;2023-04-25T04:29:38;9.10;99.90
5461;DHT22;2753;49.196;8.286;2023-04-25T04:32:04;9.10;99.90
5461;DHT22;2753;49.196;8.286;2023-04-25T04:34:30;9.10;99.90
5461;DHT22;2753;49.196;8.286;2023-04-25T04:36:56;9.10;99.90
5461;DHT22;2753;49.196;8.286;2023-04-25T04:39:22;9.10;99.90
5461;DHT22;2753;49.196;8.286;2023-04-25T04:41:48;9.20;99.90
5461;DHT22;2753;49.196;8.286;2023-04-25T04:44:14;9.20;99.90
5461;DHT22;2753;49.196;8.286;2023-04-25T04:46:40;9.20;99.90
5461;DHT22;2753;49.196;8.286;2023-04-25T04:49:10;9.20;99.90
5461;DHT22;2753;49.196;8.286;2023-04-25T04:51:36;9.20;99.90
5461;DHT22;2753;49.196;8.286;2023-04-25T04:54:03;9.20;99.90
5461;DHT22;2753;49.196;8.286;2023-04-25T04:56:29;9.20;99.90
5461;DHT22;2753;49.196;8.286;2023-04-25T04:58:57;9.20;99.90
5461;DHT22;2753;49.196;8.286;2023-04-25T05:01:23;9.20;99.90
5461;DHT22;2753;49.196;8.286;2023-04-25T05:03:49;9.20;99.90
5461;DHT22;2753;49.196;8.286;2023-04-25T05:06:16;9.10;99.90
5461;DHT22;2753;49.196;8.286;2023-04-25T05:08:41;9.10;99.90
5461;DHT22;2753;49.196;8.286;2023-04-25T05:11:07;9.20;99.90
5461;DHT22;2753;49.196;8.286;2023-04-25T05:13:33;9.20;99.90
5461;DHT22;2753;49.196;8.286;2023-04-25T05:15:58;9.20;99.90
5461;DHT22;2753;49.196;8.286;2023-04-25T05:18:24;9.20;99.90
5461;DHT22;2753;49.196;8.286;2023-04-25T05:20:50;9.30;99.90
5461;DHT22;2753;49.196;8.286;2023-04-25T05:23:16;9.30;99.90
5461;DHT22;2753;49.196;8.286;2023-04-25T05:25:41;9.30;99.90
5461;DHT22;2753;49.196;8.286;2023-04-25T05:28:07;9.30;99.90
5461;DHT22;2753;49.196;8.286;2023-04-25T05:30:34;9.30;99.90
5461;DHT22;2753;49.196;8.286;2023-04-25T05:32:59;9.40;99.90
5461;DHT22;2753;49.196;8.286;2023-04-25T05:35:26;9.40;99.90
5461;DHT22;2753;49.196;8.286;2023-04-25T05:37:51;9.40;99.90
5461;DHT22;2753;49.196;8.286;2023-04-25T05:40:17;9.40;99.90
5461;DHT22;2753;49.196;8.286;2023-04-25T05:42:43;9.40;99.90
5461;DHT22;2753;49.196;8.286;2023-04-25T05:45:09;9.40;99.90
5461;DHT22;2753;49.196;8.286;2023-04-25T05:47:35;9.40;99.90
5461;DHT22;2753;49.196;8.286;2023-04-25T05:50:00;9.50;99.90
5461;DHT22;2753;49.196;8.286;2023-04-25T05:52:26;9.50;99.90
5461;DHT22;2753;49.196;8.286;2023-04-25T05:54:52;9.50;99.90
5461;DHT22;2753;49.196;8.286;2023-04-25T05:57:26;9.50;99.90
5461;DHT22;2753;49.196;8.286;2023-04-25T05:59:52;9.50;99.90
5461;DHT22;2753;49.196;8.286;2023-04-25T06:02:19;9.50;99.90
5461;DHT22;2753;49.196;8.286;2023-04-25T06:04:46;9.60;99.90
5461;DHT22;2753;49.196;8.286;2023-04-25T06:07:11;9.60;99.90
5461;DHT22;2753;49.196;8.286;2023-04-25T06:09:38;9.60;99.90
5461;DHT22;2753;49.196;8.286;2023-04-25T06:12:07;9.60;99.90
5461;DHT22;2753;49.196;8.286;2023-04-25T06:14:33;9.50;99.90
5461;DHT22;2753;49.196;8.286;2023-04-25T06:16:59;9.50;99.90
5461;DHT22;2753;49.196;8.286;2023-04-25T06:19:25;9.50;99.90
5461;DHT22;2753;49.196;8.286;2023-04-25T06:21:50;9.50;99.90
5461;DHT22;2753;49.196;8.286;2023-04-25T06:24:16;9.50;99.90
5461;DHT22;2753;49.196;8.286;2023-04-25T06:26:42;9.50;99.90
5461;DHT22;2753;49.196;8.286;2023-04-25T06:29:07;9.50;99.90
5461;DHT22;2753;49.196;8.286;2023-04-25T06:31:33;9.50;99.90
5461;DHT22;2753;49.196;8.286;2023-04-25T06:33:59;9.50;99.90
5461;DHT22;2753;49.196;8.286;2023-04-25T06:36:24;9.50;99.90
5461;DHT22;2753;49.196;8.286;2023-04-25T06:38:51;9.50;99.90
5461;DHT22;2753;49.196;8.286;2023-04-25T06:41:20;9.60;99.90
5461;DHT22;2753;49.196;8.286;2023-04-25T06:43:46;9.60;99.90
5461;DHT22;2753;49.196;8.286;2023-04-25T06:46:12;9.60;99.90
5461;DHT22;2753;49.196;8.286;2023-04-25T06:48:37;9.60;99.90
5461;DHT22;2753;49.196;8.286;2023-04-25T06:51:03;9.60;99.90
5461;DHT22;2753;49.196;8.286;2023-04-25T06:53:29;9.30;99.90
5461;DHT22;2753;49.196;8.286;2023-04-25T06:55:55;9.60;99.90
5461;DHT22;2753;49.196;8.286;2023-04-25T06:58:20;9.60;99.90
5461;DHT22;2753;49.196;8.286;2023-04-25T07:00:46;9.60;99.90
5461;DHT22;2753;49.196;8.286;2023-04-25T07:03:12;9.70;99.90
5461;DHT22;2753;49.196;8.286;2023-04-25T07:05:37;9.70;99.90
5461;DHT22;2753;49.196;8.286;2023-04-25T07:08:03;9.70;99.90
5461;DHT22;2753;49.196;8.286;2023-04-25T07:10:29;9.70;99.90
5461;DHT22;2753;49.196;8.286;2023-04-25T07:12:55;9.70;99.90
5461;DHT22;2753;49.196;8.286;2023-04-25T07:15:21;9.70;99.90
5461;DHT22;2753;49.196;8.286;2023-04-25T07:17:46;9.70;99.90
5461;DHT22;2753;49.196;8.286;2023-04-25T07:20:12;9.80;99.90
5461;DHT22;2753;49.196;8.286;2023-04-25T07:22:38;9.70;99.90
5461;DHT22;2753;49.196;8.286;2023-04-25T07:25:04;9.80;99.90
5461;DHT22;2753;49.196;8.286;2023-04-25T07:27:30;9.80;99.90
5461;DHT22;2753;49.196;8.286;2023-04-25T07:29:56;9.80;99.90
5461;DHT22;2753;49.196;8.286;2023-04-25T07:32:22;9.80;99.90
5461;DHT22;2753;49.196;8.286;2023-04-25T07:34:48;9.80;99.90
5461;DHT22;2753;49.196;8.286;2023-04-25T07:37:14;9.80;99.90
5461;DHT22;2753;49.196;8.286;2023-04-25T07:39:40;9.80;99.90
5461;DHT22;2753;49.196;8.286;2023-04-25T07:42:06;9.80;99.90
5461;DHT22;2753;49.196;8.286;2023-04-25T07:44:34;9.80;99.90
5461;DHT22;2753;49.196;8.286;2023-04-25T07:47:07;9.80;99.90
5461;DHT22;2753;49.196;8.286;2023-04-25T07:49:36;9.80;99.90
5461;DHT22;2753;49.196;8.286;2023-04-25T07:52:03;9.80;99.90
5461;DHT22;2753;49.196;8.286;2023-04-25T07:54:29;9.80;99.90
5461;DHT22;2753;49.196;8.286;2023-04-25T07:56:55;9.80;99.90
5461;DHT22;2753;49.196;8.286;2023-04-25T07:59:21;9.80;99.90
5461;DHT22;2753;49.196;8.286;2023-04-25T08:01:47;9.80;99.90
5461;DHT22;2753;49.196;8.286;2023-04-25T08:04:12;9.90;99.90
5461;DHT22;2753;49.196;8.286;2023-04-25T08:06:38;9.80;99.90
5461;DHT22;2753;49.196;8.286;2023-04-25T08:09:04;9.80;99.90
5461;DHT22;2753;49.196;8.286;2023-04-25T08:11:30;9.80;99.90
5461;DHT22;2753;49.196;8.286;2023-04-25T08:13:55;9.80;99.90
5461;DHT22;2753;49.196;8.286;2023-04-25T08:16:21;9.80;99.90
5461;DHT22;2753;49.196;8.286;2023-04-25T08:18:47;9.90;99.90
5461;DHT22;2753;49.196;8.286;2023-04-25T08:21:14;9.90;99.90
5461;DHT22;2753;49.196;8.286;2023-04-25T08:23:40;9.90;99.90
5461;DHT22;2753;49.196;8.286;2023-04-25T08:26:06;9.90;99.90
5461;DHT22;2753;49.196;8.286;2023-04-25T08:28:32;9.90;99.90
5461;DHT22;2753;49.196;8.286;2023-04-25T08:30:58;9.90;99.90
5461;DHT22;2753;49.196;8.286;2023-04-25T08:33:23;9.90;99.90
5461;DHT22;2753;49.196;8.286;2023-04-25T08:35:49;10.00;99.90
5461;DHT22;2753;49.196;8.286;2023-04-25T08:38:15;9.90;99.90
5461;DHT22;2753;49.196;8.286;2023-04-25T08:40:41;9.90;99.90
5461;DHT22;2753;49.196;8.286;2023-04-25T08:43:08;9.90;99.90
5461;DHT22;2753;49.196;8.286;2023-04-25T08:45:39;9.90;99.90
5461;DHT22;2753;49.196;8.286;2023-04-25T08:48:13;9.90;99.90
5461;DHT22;2753;49.196;8.286;2023-04-25T08:50:43;9.90;99.90
5461;DHT22;2753;49.196;8.286;2023-04-25T08:53:12;9.90;99.90
5461;DHT22;2753;49.196;8.286;2023-04-25T08:55:44;9.90;99.90
5461;DHT22;2753;49.196;8.286;2023-04-25T08:58:11;9.90;99.90
5461;DHT22;2753;49.196;8.286;2023-04-25T09:00:37;9.90;99.90
5461;DHT22;2753;49.196;8.286;2023-04-25T09:03:03;9.90;99.90
5461;DHT22;2753;49.196;8.286;2023-04-25T09:05:29;9.90;99.90
5461;DHT22;2753;49.196;8.286;2023-04-25T09:07:55;9.90;99.90
5461;DHT22;2753;49.196;8.286;2023-04-25T09:10:22;9.90;99.90
5461;DHT22;2753;49.196;8.286;2023-04-25T09:15:50;9.80;99.90
5461;DHT22;2753;49.196;8.286;2023-04-25T09:20:53;9.80;99.90
5461;DHT22;2753;49.196;8.286;2023-04-25T09:23:20;9.90;99.90
5461;DHT22;2753;49.196;8.286;2023-04-25T09:25:50;9.90;99.90
5461;DHT22;2753;49.196;8.286;2023-04-25T09:28:17;9.90;99.90
5461;DHT22;2753;49.196;8.286;2023-04-25T09:30:48;9.90;99.90
5461;DHT22;2753;49.196;8.286;2023-04-25T09:33:14;9.90;99.90
5461;DHT22;2753;49.196;8.286;2023-04-25T09:35:42;10.00;99.90
5461;DHT22;2753;49.196;8.286;2023-04-25T09:38:09;9.90;99.90
5461;DHT22;2753;49.196;8.286;2023-04-25T09:40:40;9.90;99.90
5461;DHT22;2753;49.196;8.286;2023-04-25T09:43:30;10.00;99.90
5461;DHT22;2753;49.196;8.286;2023-04-25T09:45:55;10.00;99.90
5461;DHT22;2753;49.196;8.286;2023-04-25T09:48:25;10.00;99.90
5461;DHT22;2753;49.196;8.286;2023-04-25T09:51:10;10.00;99.90
5461;DHT22;2753;49.196;8.286;2023-04-25T09:53:38;10.00;99.90
5461;DHT22;2753;49.196;8.286;2023-04-25T09:56:05;10.00;99.90
5461;DHT22;2753;49.196;8.286;2023-04-25T09:58:35;10.00;99.90
5461;DHT22;2753;49.196;8.286;2023-04-25T10:01:04;10.00;99.90
5461;DHT22;2753;49.196;8.286;2023-04-25T10:03:33;10.00;99.90
5461;DHT22;2753;49.196;8.286;2023-04-25T10:06:01;10.00;99.90
5461;DHT22;2753;49.196;8.286;2023-04-25T10:08:36;10.00;99.90
5461;DHT22;2753;49.196;8.286;2023-04-25T10:11:04;10.10;99.90
5461;DHT22;2753;49.196;8.286;2023-04-25T10:13:31;10.10;99.90
5461;DHT22;2753;49.196;8.286;2023-04-25T10:16:02;10.10;99.90
5461;DHT22;2753;49.196;8.286;2023-04-25T10:18:29;10.00;99.90
5461;DHT22;2753;49.196;8.286;2023-04-25T10:21:01;10.00;99.90
5461;DHT22;2753;49.196;8.286;2023-04-25T10:23:27;10.00;99.90
5461;DHT22;2753;49.196;8.286;2023-04-25T10:25:55;10.00;99.90
5461;DHT22;2753;49.196;8.286;2023-04-25T10:28:21;10.00;99.90
5461;DHT22;2753;49.196;8.286;2023-04-25T10:31:01;10.00;99.90
5461;DHT22;2753;49.196;8.286;2023-04-25T10:33:36;10.00;99.90
5461;DHT22;2753;49.196;8.286;2023-04-25T10:36:12;10.00;99.90
5461;DHT22;2753;49.196;8.286;2023-04-25T10:38:39;10.00;99.90
5461;DHT22;2753;49.196;8.286;2023-04-25T10:41:07;10.00;99.90
5461;DHT22;2753;49.196;8.286;2023-04-25T10:43:39;10.00;99.90
5461;DHT22;2753;49.196;8.286;2023-04-25T10:46:22;10.10;99.90
5461;DHT22;2753;49.196;8.286;2023-04-25T10:48:53;10.00;99.90
5461;DHT22;2753;49.196;8.286;2023-04-25T10:51:27;10.00;99.90
5461;DHT22;2753;49.196;8.286;2023-04-25T10:53:59;10.00;99.90
5461;DHT22;2753;49.196;8.286;2023-04-25T10:56:40;10.00;99.90
5461;DHT22;2753;49.196;8.286;2023-04-25T10:59:17;10.00;99.90
5461;DHT22;2753;49.196;8.286;2023-04-25T11:01:49;9.90;99.90
5461;DHT22;2753;49.196;8.286;2023-04-25T11:04:21;9.90;99.90
5461;DHT22;2753;49.196;8.286;2023-04-25T11:06:59;9.90;99.90
5461;DHT22;2753;49.196;8.286;2023-04-25T11:09:26;9.90;99.90
5461;DHT22;2753;49.196;8.286;2023-04-25T11:11:56;9.90;99.90
5461;DHT22;2753;49.196;8.286;2023-04-25T11:14:23;9.90;99.90
5461;DHT22;2753;49.196;8.286;2023-04-25T11:16:55;9.90;99.90
5461;DHT22;2753;49.196;8.286;2023-04-25T11:19:22;10.00;99.90
5461;DHT22;2753;49.196;8.286;2023-04-25T11:21:48;10.00;99.90
5461;DHT22;2753;49.196;8.286;2023-04-25T11:24:15;10.10;99.90
5461;DHT22;2753;49.196;8.286;2023-04-25T11:26:42;10.10;99.90
5461;DHT22;2753;49.196;8.286;2023-04-25T11:29:08;10.20;99.90
5461;DHT22;2753;49.196;8.286;2023-04-25T11:31:34;10.20;99.90
5461;DHT22;2753;49.196;8.286;2023-04-25T11:33:59;10.20;99.90
5461;DHT22;2753;49.196;8.286;2023-04-25T11:36:26;10.20;99.90
5461;DHT22;2753;49.196;8.286;2023-04-25T11:38:52;10.30;99.90
5461;DHT22;2753;49.196;8.286;2023-04-25T11:41:21;10.40;99.90
5461;DHT22;2753;49.196;8.286;2023-04-25T11:43:48;10.40;99.90
5461;DHT22;2753;49.196;8.286;2023-04-25T11:46:15;10.50;99.90
5461;DHT22;2753;49.196;8.286;2023-04-25T11:48:41;10.50;99.90
5461;DHT22;2753;49.196;8.286;2023-04-25T11:51:07;10.60;99.90
5461;DHT22;2753;49.196;8.286;2023-04-25T11:53:33;10.60;99.90
5461;DHT22;2753;49.196;8.286;2023-04-25T11:55:59;10.60;99.90
5461;DHT22;2753;49.196;8.286;2023-04-25T11:58:26;10.60;99.90
5461;DHT22;2753;49.196;8.286;2023-04-25T12:00:52;10.60;99.90
5461;DHT22;2753;49.196;8.286;2023-04-25T12:03:18;10.60;99.90
5461;DHT22;2753;49.196;8.286;2023-04-25T12:05:45;10.60;99.90
5461;DHT22;2753;49.196;8.286;2023-04-25T12:08:17;10.60;99.90
5461;DHT22;2753;49.196;8.286;2023-04-25T12:10:45;10.60;99.90
5461;DHT22;2753;49.196;8.286;2023-04-25T12:13:25;10.60;99.90
5461;DHT22;2753;49.196;8.286;2023-04-25T12:15:54;10.60;99.90
5461;DHT22;2753;49.196;8.286;2023-04-25T12:18:21;10.70;99.90
5461;DHT22;2753;49.196;8.286;2023-04-25T12:20:50;10.70;99.90
5461;DHT22;2753;49.196;8.286;2023-04-25T12:23:17;10.70;99.90
5461;DHT22;2753;49.196;8.286;2023-04-25T12:25:50;10.70;99.90
5461;DHT22;2753;49.196;8.286;2023-04-25T12:28:21;10.80;99.90
5461;DHT22;2753;49.196;8.286;2023-04-25T12:30:59;10.90;99.90
5461;DHT22;2753;49.196;8.286;2023-04-25T12:33:26;10.90;99.90
5461;DHT22;2753;49.196;8.286;2023-04-25T12:35:53;11.00;99.90
5461;DHT22;2753;49.196;8.286;2023-04-25T12:38:26;11.00;99.90
5461;DHT22;2753;49.196;8.286;2023-04-25T12:40:53;11.10;99.90
5461;DHT22;2753;49.196;8.286;2023-04-25T12:43:19;11.10;99.90
5461;DHT22;2753;49.196;8.286;2023-04-25T12:45:52;11.10;99.90
5461;DHT22;2753;49.196;8.286;2023-04-25T12:48:19;11.20;99.90
5461;DHT22;2753;49.196;8.286;2023-04-25T12:50:46;11.20;99.90
5461;DHT22;2753;49.196;8.286;2023-04-25T12:53:15;11.30;99.90
5461;DHT22;2753;49.196;8.286;2023-04-25T12:55:41;11.30;99.90
5461;DHT22;2753;49.196;8.286;2023-04-25T12:58:07;11.30;99.90
5461;DHT22;2753;49.196;8.286;2023-04-25T13:00:33;11.30;99.90
5461;DHT22;2753;49.196;8.286;2023-04-25T13:02:58;11.20;99.90
5461;DHT22;2753;49.196;8.286;2023-04-25T13:05:25;11.20;99.90
5461;DHT22;2753;49.196;8.286;2023-04-25T13:07:51;11.20;99.90
5461;DHT22;2753;49.196;8.286;2023-04-25T13:10:17;11.30;99.90
5461;DHT22;2753;49.196;8.286;2023-04-25T13:12:43;11.20;99.90
5461;DHT22;2753;49.196;8.286;2023-04-25T13:15:09;11.20;99.90
5461;DHT22;2753;49.196;8.286;2023-04-25T13:17:37;11.30;99.90
5461;DHT22;2753;49.196;8.286;2023-04-25T13:20:04;11.20;99.90
5461;DHT22;2753;49.196;8.286;2023-04-25T13:22:34;11.20;99.90
5461;DHT22;2753;49.196;8.286;2023-04-25T13:25:02;11.20;99.90
5461;DHT22;2753;49.196;8.286;2023-04-25T13:27:28;11.20;99.90
5461;DHT22;2753;49.196;8.286;2023-04-25T13:29:54;11.30;99.90
5461;DHT22;2753;49.196;8.286;2023-04-25T13:32:20;11.40;99.90
5461;DHT22;2753;49.196;8.286;2023-04-25T13:34:45;11.50;99.90
5461;DHT22;2753;49.196;8.286;2023-04-25T13:37:11;11.60;99.90
5461;DHT22;2753;49.196;8.286;2023-04-25T13:39:37;11.60;99.90
5461;DHT22;2753;49.196;8.286;2023-04-25T13:42:02;11.60;99.90
5461;DHT22;2753;49.196;8.286;2023-04-25T13:44:28;11.70;99.90
5461;DHT22;2753;49.196;8.286;2023-04-25T13:46:54;11.70;99.90
5461;DHT22;2753;49.196;8.286;2023-04-25T13:49:20;11.70;99.90
5461;DHT22;2753;49.196;8.286;2023-04-25T13:51:45;11.70;99.90
5461;DHT22;2753;49.196;8.286;2023-04-25T13:54:11;11.70;99.90
5461;DHT22;2753;49.196;8.286;2023-04-25T13:56:37;11.60;99.50
5461;DHT22;2753;49.196;8.286;2023-04-25T13:59:03;11.60;99.90
5461;DHT22;2753;49.196;8.286;2023-04-25T14:01:28;11.70;99.90
5461;DHT22;2753;49.196;8.286;2023-04-25T14:03:56;11.70;99.90
5461;DHT22;2753;49.196;8.286;2023-04-25T14:06:22;11.70;99.90
5461;DHT22;2753;49.196;8.286;2023-04-25T14:08:50;11.70;99.90
5461;DHT22;2753;49.196;8.286;2023-04-25T14:11:16;11.70;99.90
5461;DHT22;2753;49.196;8.286;2023-04-25T14:13:44;11.70;99.90
5461;DHT22;2753;49.196;8.286;2023-04-25T14:16:09;11.60;99.90
5461;DHT22;2753;49.196;8.286;2023-04-25T14:18:35;11.60;99.90
5461;DHT22;2753;49.196;8.286;2023-04-25T14:21:01;11.70;99.90
5461;DHT22;2753;49.196;8.286;2023-04-25T14:23:26;11.70;99.90
5461;DHT22;2753;49.196;8.286;2023-04-25T14:25:52;11.80;99.90
5461;DHT22;2753;49.196;8.286;2023-04-25T14:28:18;11.70;99.90
5461;DHT22;2753;49.196;8.286;2023-04-25T14:30:45;11.70;99.90
5461;DHT22;2753;49.196;8.286;2023-04-25T14:33:11;11.70;99.90
5461;DHT22;2753;49.196;8.286;2023-04-25T14:35:37;11.70;99.90
5461;DHT22;2753;49.196;8.286;2023-04-25T14:38:02;11.70;99.90
5461;DHT22;2753;49.196;8.286;2023-04-25T14:40:28;11.70;99.90
5461;DHT22;2753;49.196;8.286;2023-04-25T14:42:54;11.80;99.90
5461;DHT22;2753;49.196;8.286;2023-04-25T14:45:20;11.70;99.40
5461;DHT22;2753;49.196;8.286;2023-04-25T14:47:46;11.60;99.50
5461;DHT22;2753;49.196;8.286;2023-04-25T14:50:11;11.50;99.40
5461;DHT22;2753;49.196;8.286;2023-04-25T14:52:37;11.50;99.70
5461;DHT22;2753;49.196;8.286;2023-04-25T14:55:04;11.60;99.80
5461;DHT22;2753;49.196;8.286;2023-04-25T14:57:34;11.60;99.90
5461;DHT22;2753;49.196;8.286;2023-04-25T15:00:00;11.50;99.90
5461;DHT22;2753;49.196;8.286;2023-04-25T15:02:26;11.40;99.90
5461;DHT22;2753;49.196;8.286;2023-04-25T15:04:53;11.40;99.90
5461;DHT22;2753;49.196;8.286;2023-04-25T15:07:22;11.40;99.90
5461;DHT22;2753;49.196;8.286;2023-04-25T15:09:51;11.40;99.90
5461;DHT22;2753;49.196;8.286;2023-04-25T15:12:18;11.40;99.90
5461;DHT22;2753;49.196;8.286;2023-04-25T15:14:44;11.30;99.90
5461;DHT22;2753;49.196;8.286;2023-04-25T15:17:10;11.30;99.90
5461;DHT22;2753;49.196;8.286;2023-04-25T15:19:38;11.20;99.90
5461;DHT22;2753;49.196;8.286;2023-04-25T15:22:05;11.20;99.90
5461;DHT22;2753;49.196;8.286;2023-04-25T15:24:32;11.10;99.90
5461;DHT22;2753;49.196;8.286;2023-04-25T15:26:58;11.00;99.90
5461;DHT22;2753;49.196;8.286;2023-04-25T15:29:23;10.80;99.90
5461;DHT22;2753;49.196;8.286;2023-04-25T15:31:50;10.80;99.90
5461;DHT22;2753;49.196;8.286;2023-04-25T15:34:15;10.60;99.90
5461;DHT22;2753;49.196;8.286;2023-04-25T15:36:41;10.40;99.90
5461;DHT22;2753;49.196;8.286;2023-04-25T15:39:07;10.30;99.90
5461;DHT22;2753;49.196;8.286;2023-04-25T15:41:33;10.40;99.90
5461;DHT22;2753;49.196;8.286;2023-04-25T15:43:59;10.40;99.90
5461;DHT22;2753;49.196;8.286;2023-04-25T15:46:26;10.30;99.90
5461;DHT22;2753;49.196;8.286;2023-04-25T15:48:52;10.10;99.90
5461;DHT22;2753;49.196;8.286;2023-04-25T15:51:17;10.10;99.90
5461;DHT22;2753;49.196;8.286;2023-04-25T15:53:43;10.00;99.90
5461;DHT22;2753;49.196;8.286;2023-04-25T15:56:09;10.10;99.90
5461;DHT22;2753;49.196;8.286;2023-04-25T15:58:35;10.10;99.90
5461;DHT22;2753;49.196;8.286;2023-04-25T16:01:01;10.10;99.90
5461;DHT22;2753;49.196;8.286;2023-04-25T16:03:29;10.10;99.90
5461;DHT22;2753;49.196;8.286;2023-04-25T16:05:55;10.10;99.90
5461;DHT22;2753;49.196;8.286;2023-04-25T16:08:20;10.10;99.90
5461;DHT22;2753;49.196;8.286;2023-04-25T16:10:46;10.00;99.90
5461;DHT22;2753;49.196;8.286;2023-04-25T16:13:12;9.90;99.90
5461;DHT22;2753;49.196;8.286;2023-04-25T16:15:38;10.00;99.90